Time;durP1;ratioP1;P1;durP2;ratioP2;P2;SDS_P1;SDS_P2;PMS_P1;PMS_P2;Temp;Humidity;BMP_temperature;BMP_pressure;BME280_temperature;BME280_humidity;BME280_pressure;Samples;Min_cycle;Max_cycle;Signal;HPM_P1;HPM_P2
2022/11/11 00:01:00;;;;;;;44.03;26.77;;;;;;;3.41;100.00;94230.66;5071932;28;20045;-77
2022/11/11 00:03:27;;;;;;;45.00;27.00;;;;;;;3.47;100.00;94235.19;5071279;28;20051;-76
2022/11/11 00:05:54;;;;;;;45.75;28.42;;;;;;;3.52;100.00;94247.50;5071667;28;20048;-76
2022/11/11 00:08:21;;;;;;;57.75;34.55;;;;;;;3.51;100.00;94231.44;5071796;28;20076;-77
2022/11/11 00:10:47;;;;;;;57.28;33.17;;;;;;;3.56;100.00;94233.56;5071570;28;20080;-76
2022/11/11 00:13:18;;;;;;;50.55;30.75;;;;;;;3.52;100.00;94233.03;5071744;28;20052;-77
2022/11/11 00:15:44;;;;;;;48.70;28.60;;;;;;;3.51;100.00;94244.13;5071839;28;20438;-77
2022/11/11 00:26:29;;;;;;;42.38;27.15;;;;;;;3.46;100.00;94247.09;5091251;28;20123;-78
2022/11/11 00:29:00;;;;;;;45.75;28.45;;;;;;;3.21;100.00;94211.22;5091590;28;20079;-77
2022/11/11 00:31:27;;;;;;;49.67;30.13;;;;;;;3.43;100.00;94246.59;5091693;28;20052;-77
2022/11/11 00:33:54;;;;;;;54.55;32.60;;;;;;;3.37;100.00;94242.84;5091369;28;20095;-77
2022/11/11 00:36:19;;;;;;;54.25;31.95;;;;;;;3.40;100.00;94250.22;5100774;28;20126;-77
2022/11/11 00:38:46;;;;;;;50.53;32.72;;;;;;;3.43;100.00;94249.91;5112172;28;20127;-77
2022/11/11 00:41:15;;;;;;;53.63;33.55;;;;;;;3.32;100.00;94234.84;5111271;28;20048;-76
2022/11/11 00:43:42;;;;;;;59.53;35.00;;;;;;;3.44;100.00;94248.19;5112019;28;20051;-77
2022/11/11 00:51:39;;;;;;;51.20;29.80;;;;;;;3.39;100.00;94238.47;5107221;28;20520;-76
2022/11/11 00:54:07;;;;;;;48.67;28.13;;;;;;;3.36;100.00;94248.06;5076047;28;20078;-76
2022/11/11 00:56:35;;;;;;;46.88;27.65;;;;;;;3.34;100.00;94241.38;5102781;28;20056;-76
2022/11/11 00:59:02;;;;;;;58.03;34.67;;;;;;;3.28;100.00;94239.41;5110961;28;20046;-76
2022/11/11 01:01:30;;;;;;;58.67;34.33;;;;;;;3.04;100.00;94196.72;5111199;28;20093;-76
2022/11/11 01:03:58;;;;;;;62.05;35.45;;;;;;;3.12;100.00;94201.94;5111434;28;20047;-76
2022/11/11 01:06:24;;;;;;;72.07;40.83;;;;;;;3.20;100.00;94222.31;5111682;28;20051;-75
2022/11/11 01:08:52;;;;;;;65.75;39.20;;;;;;;3.21;100.00;94226.47;5111296;28;20075;-75
2022/11/11 01:11:21;;;;;;;71.97;39.10;;;;;;;3.16;100.00;94231.16;5111612;28;20087;-76
2022/11/11 01:13:49;;;;;;;72.82;42.55;;;;;;;3.13;100.00;94221.28;5109700;28;20048;-75
2022/11/11 01:16:18;;;;;;;67.03;39.35;;;;;;;3.22;100.00;94234.88;5085400;28;20048;-75
2022/11/11 01:18:47;;;;;;;70.65;40.70;;;;;;;3.23;100.00;94223.78;5111479;28;20048;-76
2022/11/11 01:21:16;;;;;;;72.63;41.88;;;;;;;3.29;100.00;94232.59;5082523;28;20083;-76
2022/11/11 01:23:44;;;;;;;72.75;43.85;;;;;;;3.28;100.00;94233.56;5111265;28;20120;-76
2022/11/11 01:26:14;;;;;;;70.97;42.47;;;;;;;3.33;100.00;94231.38;5110996;28;20478;-76
2022/11/11 01:28:41;;;;;;;68.60;43.25;;;;;;;3.32;100.00;94240.75;5111294;28;20112;-76
2022/11/11 01:31:09;;;;;;;73.43;42.47;;;;;;;3.35;100.00;94232.03;5110899;28;20047;-76
2022/11/11 01:33:36;;;;;;;65.15;38.53;;;;;;;3.33;100.00;94238.97;5110833;28;20055;-76
2022/11/11 01:36:07;;;;;;;64.57;37.40;;;;;;;3.31;100.00;94236.59;5111085;28;20092;-76
2022/11/11 01:38:34;;;;;;;55.88;35.08;;;;;;;3.26;100.00;94230.34;5110358;28;20079;-76
2022/11/11 01:41:31;;;;;;;57.17;35.17;;;;;;;3.18;100.00;94218.31;5110607;28;20097;-76
2022/11/11 01:43:49;;;;;;;60.80;35.97;;;;;;;3.18;100.00;94231.84;5110452;28;20166;-76
2022/11/11 01:46:28;;;;;;;61.25;36.17;;;;;;;3.19;100.00;94230.06;5110769;28;20100;-77
2022/11/11 01:51:49;;;;;;;59.55;37.22;;;;;;;3.09;100.00;94225.03;5110519;28;20059;-74
2022/11/11 01:54:21;;;;;;;64.75;38.58;;;;;;;3.11;100.00;94230.78;5094505;28;20129;-74
2022/11/11 01:56:52;;;;;;;62.75;36.70;;;;;;;3.16;100.00;94227.84;5099810;28;20090;-75
2022/11/11 01:59:19;;;;;;;59.88;36.40;;;;;;;3.06;100.00;94215.19;5110439;28;20101;-75
2022/11/11 02:01:48;;;;;;;58.90;36.88;;;;;;;3.18;100.00;94244.53;5110559;28;20120;-74
2022/11/11 02:07:07;;;;;;;62.88;37.38;;;;;;;3.15;100.00;94237.19;5109612;28;20054;-75
2022/11/11 02:09:36;;;;;;;60.55;37.97;;;;;;;3.13;100.00;94236.53;5110281;28;20039;-74
2022/11/11 02:14:55;;;;;;;56.72;35.30;;;;;;;3.10;100.00;94241.88;5109781;28;20101;-74
2022/11/11 02:17:22;;;;;;;62.88;36.50;;;;;;;3.10;100.00;94241.88;5110282;28;20140;-74
2022/11/11 02:19:52;;;;;;;61.38;36.95;;;;;;;2.94;100.00;94237.38;5110169;28;20083;-74
2022/11/11 02:22:28;;;;;;;58.42;34.85;;;;;;;3.07;100.00;94249.78;5107988;28;20044;-74
2022/11/11 02:24:58;;;;;;;64.68;37.83;;;;;;;2.98;100.00;94241.25;5110123;28;20047;-74
2022/11/11 02:27:27;;;;;;;64.80;37.58;;;;;;;3.04;100.00;94245.78;5109044;28;20051;-74
2022/11/11 02:29:56;;;;;;;61.92;37.38;;;;;;;3.05;100.00;94249.91;5110302;28;20047;-74
2022/11/11 02:32:23;;;;;;;63.38;37.95;;;;;;;3.08;100.00;94246.28;5110066;28;20078;-74
2022/11/11 02:34:49;;;;;;;61.78;36.50;;;;;;;3.10;100.00;94253.78;5110229;28;20093;-74
2022/11/11 02:37:21;;;;;;;60.83;35.95;;;;;;;3.03;100.00;94246.72;5110272;28;20043;-74
2022/11/11 02:39:50;;;;;;;61.35;36.47;;;;;;;3.08;100.00;94253.91;5110208;28;20044;-74
2022/11/11 02:42:21;;;;;;;61.03;35.58;;;;;;;3.11;100.00;94251.09;5109927;28;20047;-74
2022/11/11 02:44:47;;;;;;;60.90;35.17;;;;;;;3.15;100.00;94246.53;5109678;28;20036;-74
2022/11/11 02:47:14;;;;;;;62.30;36.40;;;;;;;3.17;100.00;94249.75;5110179;28;20071;-74
2022/11/11 02:49:41;;;;;;;58.97;34.95;;;;;;;3.18;100.00;94247.06;5109821;28;20493;-74
2022/11/11 02:52:08;;;;;;;59.80;35.03;;;;;;;3.16;100.00;94248.16;5084477;28;20053;-74
2022/11/11 02:54:35;;;;;;;66.55;37.60;;;;;;;3.17;100.00;94252.28;5069704;28;20094;-74
2022/11/11 02:57:07;;;;;;;78.55;44.05;;;;;;;3.17;100.00;94250.56;5087707;28;20106;-74
2022/11/11 02:59:36;;;;;;;72.38;42.40;;;;;;;3.26;100.00;94259.06;5080113;28;20093;-74
2022/11/11 03:02:03;;;;;;;70.93;39.88;;;;;;;3.28;100.00;94253.88;5109668;28;20083;-76
2022/11/11 03:04:29;;;;;;;82.95;45.78;;;;;;;3.24;100.00;94244.91;5109806;28;20048;-75
2022/11/11 03:06:56;;;;;;;70.47;41.40;;;;;;;3.34;100.00;94248.22;5109602;28;20077;-75
2022/11/11 03:09:23;;;;;;;66.45;40.20;;;;;;;3.38;100.00;94254.59;5108680;28;20136;-74
2022/11/11 03:11:50;;;;;;;82.15;45.78;;;;;;;3.30;100.00;94229.13;5108629;28;20120;-74
2022/11/11 03:14:16;;;;;;;80.22;42.38;;;;;;;3.43;100.00;94244.06;5109484;28;20554;-74
2022/11/11 03:19:28;;;;;;;;;;;;;;;3.68;100.00;94247.69;5112808;28;20062;-75
2022/11/11 03:21:55;;;;;;;72.72;39.20;;;;;;;3.61;100.00;94247.44;5113101;28;19949;-75
2022/11/11 03:24:22;;;;;;;68.60;38.90;;;;;;;3.67;100.00;94242.75;5113647;28;20130;-75
2022/11/11 03:26:48;;;;;;;68.95;40.25;;;;;;;3.71;100.00;94246.59;5113291;28;20092;-75
2022/11/11 03:29:15;;;;;;;67.10;39.22;;;;;;;3.77;100.00;94252.84;5113459;28;20573;-74
2022/11/11 03:31:42;;;;;;;64.93;39.78;;;;;;;3.75;100.00;94258.06;5113484;28;20044;-77
2022/11/11 03:34:19;;;;;;;66.22;39.60;;;;;;;3.68;100.00;94254.50;5113614;28;20108;-76
2022/11/11 03:39:30;;;;;;;71.65;42.22;;;;;;;3.63;100.00;94254.94;5112905;28;20079;-75
2022/11/11 03:41:57;;;;;;;68.18;40.05;;;;;;;3.79;100.00;94258.59;5108688;28;20074;-75
2022/11/11 03:44:24;;;;;;;66.72;39.50;;;;;;;3.86;100.00;94250.28;5103932;28;20051;-75
2022/11/11 03:46:51;;;;;;;74.97;39.80;;;;;;;3.94;100.00;94252.09;5112433;28;20100;-75
2022/11/11 03:49:19;;;;;;;66.60;39.63;;;;;;;3.99;100.00;94255.00;5113298;28;20558;-76
2022/11/11 03:51:45;;;;;;;71.53;40.63;;;;;;;4.09;100.00;94254.97;5111928;28;20104;-75
2022/11/11 03:54:12;;;;;;;67.65;41.47;;;;;;;4.15;100.00;94263.75;5092739;28;20136;-75
2022/11/11 03:56:39;;;;;;;67.20;37.75;;;;;;;4.24;100.00;94262.09;5106596;28;20060;-75
2022/11/11 03:59:06;;;;;;;67.90;39.60;;;;;;;4.31;100.00;94259.78;5112706;28;20488;-75
2022/11/11 04:16:04;;;;;;;62.70;37.03;;;;;;;4.65;100.00;94231.94;5111950;28;20124;-76
2022/11/11 04:18:02;;;;;;;60.70;36.60;;;;;;;4.86;100.00;94245.28;5112087;28;20050;-76
2022/11/11 04:23:14;;;;;;;76.80;45.05;;;;;;;5.03;100.00;94253.81;5112353;28;20057;-76
2022/11/11 04:25:48;;;;;;;71.13;42.15;;;;;;;5.06;100.00;94243.34;5098019;28;20048;-76
2022/11/11 04:31:00;;;;;;;80.43;45.22;;;;;;;5.24;100.00;94256.03;5111852;28;20425;-76
2022/11/11 04:33:26;;;;;;;82.55;48.05;;;;;;;5.26;100.00;94266.03;5112426;28;20044;-76
2022/11/11 04:35:53;;;;;;;76.07;46.97;;;;;;;5.24;100.00;94265.41;5112170;28;20043;-76
2022/11/11 04:41:07;;;;;;;;;;;;;;;5.45;100.00;94263.28;5112040;28;20424;-76
2022/11/11 04:45:26;;;;;;;73.32;44.67;;;;;;;5.39;100.00;94266.44;5112064;28;20427;-76
2022/11/11 04:46:20;;;;;;;64.10;41.83;;;;;;;5.51;100.00;94256.78;5111759;28;20059;-76
2022/11/11 04:48:47;;;;;;;56.78;37.22;;;;;;;5.64;100.00;94264.00;5111257;28;20413;-76
2022/11/11 04:51:14;;;;;;;73.15;45.20;;;;;;;5.72;100.00;94258.16;5110294;28;20047;-76
2022/11/11 04:53:42;;;;;;;88.53;55.33;;;;;;;5.70;100.00;94243.00;5092203;28;20045;-75
2022/11/11 04:59:14;;;;;;;52.75;35.58;;;;;;;6.19;100.00;94262.00;5111123;28;20055;-76
2022/11/11 05:04:23;;;;;;;54.78;34.38;;;;;;;6.72;100.00;94261.75;5111780;28;20059;-76
2022/11/11 05:09:36;;;;;;;49.40;33.85;;;;;;;7.13;100.00;94255.81;5110950;28;20067;-76
2022/11/11 05:12:02;;;;;;;47.83;33.42;;;;;;;7.22;100.00;94251.47;5111384;28;20096;-76
2022/11/11 05:22:43;;;;;;;44.35;30.88;;;;;;;7.73;100.00;94263.19;5111018;28;20130;-75
2022/11/11 05:25:28;;;;;;;81.93;52.72;;;;;;;7.41;100.00;94264.88;5111050;28;20105;-74
2022/11/11 05:27:55;;;;;;;47.92;33.13;;;;;;;7.47;100.00;94246.31;5111520;28;20386;-74
2022/11/11 05:30:23;;;;;;;49.92;32.50;;;;;;;7.64;100.00;94254.72;5111106;28;20109;-74
2022/11/11 05:32:50;;;;;;;66.13;40.13;;;;;;;7.42;100.00;94256.25;5111090;28;20079;-74
2022/11/11 05:35:18;;;;;;;52.53;34.53;;;;;;;7.51;100.00;94264.69;5111012;28;20097;-75
2022/11/11 05:38:18;;;;;;;52.35;33.45;;;;;;;7.56;100.00;94268.34;5111090;28;20526;-75
2022/11/11 05:40:33;;;;;;;67.82;40.83;;;;;;;7.46;100.00;94276.19;5110151;28;20559;-75
2022/11/11 05:43:00;;;;;;;68.88;40.92;;;;;;;6.95;100.00;94271.34;5096455;28;20067;-75
2022/11/11 05:45:27;;;;;;;63.42;40.25;;;;;;;6.49;100.00;94297.31;5110973;28;20044;-75
2022/11/11 05:47:53;;;;;;;68.22;43.00;;;;;;;6.37;100.00;94297.59;5110639;28;20051;-75
2022/11/11 05:50:20;;;;;;;65.70;41.50;;;;;;;6.45;100.00;94290.91;5110756;28;20051;-75
2022/11/11 05:52:50;;;;;;;63.13;39.67;;;;;;;6.50;100.00;94286.13;5110671;28;20083;-75
2022/11/11 05:55:17;;;;;;;64.38;40.80;;;;;;;6.62;100.00;94282.31;5088990;28;20110;-74
2022/11/11 05:57:45;;;;;;;64.45;40.47;;;;;;;6.44;100.00;94258.69;5110566;28;20514;-74
2022/11/11 06:00:12;;;;;;;58.40;36.97;;;;;;;6.65;100.00;94291.41;5110635;28;20117;-74
2022/11/11 06:02:39;;;;;;;62.90;38.38;;;;;;;6.65;100.00;94296.53;5110457;28;20489;-74
2022/11/11 06:05:07;;;;;;;69.72;43.28;;;;;;;6.56;100.00;94285.50;5110686;28;20047;-76
2022/11/11 06:07:38;;;;;;;70.13;42.35;;;;;;;6.60;100.00;94291.91;5110477;28;20535;-75
2022/11/11 06:13:04;;;;;;;61.28;40.05;;;;;;;6.72;100.00;94296.69;5096933;28;20054;-75
2022/11/11 06:15:31;;;;;;;59.33;38.00;;;;;;;6.86;100.00;94293.53;5110626;28;20051;-75
2022/11/11 06:17:58;;;;;;;61.35;38.10;;;;;;;6.90;100.00;94296.56;5110207;28;20130;-75
2022/11/11 06:20:24;;;;;;;68.53;43.33;;;;;;;7.08;100.00;94304.03;5110449;28;20463;-75
2022/11/11 06:22:57;;;;;;;61.70;40.92;;;;;;;7.15;100.00;94307.56;5109923;28;20105;-75
2022/11/11 06:28:09;;;;;;;68.28;41.28;;;;;;;7.11;100.00;94300.34;5083743;28;20565;-76
2022/11/11 06:30:36;;;;;;;64.90;38.30;;;;;;;7.07;100.00;94271.78;5109855;28;20378;-77
2022/11/11 06:33:03;;;;;;;57.25;36.53;;;;;;;7.53;100.00;94319.00;5110095;28;20039;-76
2022/11/11 06:35:30;;;;;;;55.88;35.35;;;;;;;7.69;100.00;94325.84;5109794;28;20464;-76
2022/11/11 06:37:56;;;;;;;46.35;31.80;;;;;;;7.85;100.00;94330.94;5109885;28;20036;-76
2022/11/11 06:40:23;;;;;;;51.88;32.30;;;;;;;7.94;100.00;94331.69;5109934;28;20079;-75
2022/11/11 06:42:50;;;;;;;60.10;38.40;;;;;;;8.02;100.00;94338.53;5109341;28;20130;-75
2022/11/11 06:45:18;;;;;;;47.35;30.45;;;;;;;8.01;100.00;94332.63;5110330;28;20051;-75
2022/11/11 06:47:45;;;;;;;35.95;25.65;;;;;;;8.10;100.00;94346.19;5110112;28;20531;-75
2022/11/11 06:50:12;;;;;;;35.53;24.13;;;;;;;8.20;100.00;94345.19;5109985;28;20077;-75
2022/11/11 06:52:38;;;;;;;35.85;25.33;;;;;;;8.31;100.00;94337.16;5112483;28;20569;-75
2022/11/11 06:55:06;;;;;;;36.90;24.88;;;;;;;8.45;100.00;94332.25;5087565;28;20110;-75
2022/11/11 06:57:33;;;;;;;35.45;25.13;;;;;;;8.45;100.00;94333.06;5116846;27;20039;-75
2022/11/11 06:59:59;;;;;;;36.22;25.13;;;;;;;8.43;100.00;94333.22;5116501;28;20082;-75
2022/11/11 07:02:27;;;;;;;32.83;22.38;;;;;;;8.44;100.00;94331.47;5116502;28;20505;-75
2022/11/11 07:04:54;;;;;;;27.95;19.55;;;;;;;8.40;100.00;94338.72;5116983;27;20043;-75
2022/11/11 07:07:21;;;;;;;31.67;21.33;;;;;;;8.58;100.00;94345.38;5116341;28;20501;-75
2022/11/11 07:09:48;;;;;;;24.33;17.05;;;;;;;8.60;100.00;94343.41;5116659;28;20039;-75
2022/11/11 07:12:14;;;;;;;21.83;15.88;;;;;;;8.55;100.00;94343.94;5116180;28;20044;-75
2022/11/11 07:14:41;;;;;;;20.25;15.23;;;;;;;8.59;100.00;94341.03;5116708;28;20458;-75
2022/11/11 07:17:08;;;;;;;20.23;14.73;;;;;;;8.61;100.00;94350.13;5116645;28;20052;-75
2022/11/11 07:19:36;;;;;;;20.52;14.15;;;;;;;8.51;100.00;94360.56;5117005;28;20105;-75
2022/11/11 07:22:02;;;;;;;27.83;18.33;;;;;;;8.41;100.00;94359.97;5116772;28;20047;-74
2022/11/11 07:24:29;;;;;;;25.23;16.52;;;;;;;8.35;100.00;94358.88;5116464;28;20140;-75
2022/11/11 07:26:56;;;;;;;31.70;21.50;;;;;;;8.40;100.00;94366.06;5116274;27;20044;-75
2022/11/11 07:29:23;;;;;;;43.47;28.23;;;;;;;8.35;100.00;94365.75;5116525;28;20132;-75
2022/11/11 07:31:50;;;;;;;46.97;28.95;;;;;;;8.35;100.00;94369.13;5115983;28;20120;-74
2022/11/11 07:34:16;;;;;;;41.08;26.50;;;;;;;8.36;100.00;94369.91;5116363;28;20074;-76
2022/11/11 07:36:44;;;;;;;38.75;23.95;;;;;;;8.35;100.00;94378.56;5116188;28;20040;-76
2022/11/11 07:39:11;;;;;;;44.03;26.35;;;;;;;8.29;100.00;94362.13;5116371;27;20048;-75
2022/11/11 07:41:38;;;;;;;37.40;22.75;;;;;;;8.26;100.00;94370.94;5116392;27;20050;-76
2022/11/11 07:44:05;;;;;;;32.28;22.15;;;;;;;8.29;100.00;94385.94;5116415;27;20055;-75
2022/11/11 07:46:31;;;;;;;30.05;20.73;;;;;;;8.32;100.00;94384.03;5115880;27;20455;-76
2022/11/11 07:48:58;;;;;;;27.40;19.08;;;;;;;8.34;100.00;94380.31;5115992;27;20048;-75
2022/11/11 07:51:25;;;;;;;33.58;22.42;;;;;;;8.37;100.00;94369.75;5116130;27;20084;-75
2022/11/11 07:53:53;;;;;;;30.95;21.25;;;;;;;8.38;100.00;94368.00;5106615;27;20055;-75
2022/11/11 07:56:20;;;;;;;30.48;20.85;;;;;;;8.48;100.00;94381.38;5097673;28;20059;-75
2022/11/11 07:58:46;;;;;;;28.13;20.08;;;;;;;8.51;100.00;94383.63;5116240;28;20048;-76
2022/11/11 08:01:13;;;;;;;26.90;18.50;;;;;;;8.47;100.00;94384.13;5115877;27;20044;-75
2022/11/11 08:03:48;;;;;;;26.85;17.40;;;;;;;8.40;100.00;94389.09;5114661;27;20428;-76
2022/11/11 08:06:16;;;;;;;22.35;15.77;;;;;;;8.25;100.00;94382.09;5112925;28;20040;-77
2022/11/11 08:08:43;;;;;;;24.05;17.10;;;;;;;8.33;100.00;94390.75;5112903;28;20052;-77
2022/11/11 08:11:11;;;;;;;23.95;16.02;;;;;;;8.31;100.00;94393.47;5112583;28;20054;-77
2022/11/11 08:13:40;;;;;;;27.70;18.80;;;;;;;8.37;100.00;94399.66;5112535;28;20050;-76
2022/11/11 08:16:07;;;;;;;25.65;18.48;;;;;;;8.29;100.00;94400.53;5112013;28;20505;-76
2022/11/11 08:18:34;;;;;;;25.38;16.92;;;;;;;8.05;100.00;94373.25;5112543;28;20043;-75
2022/11/11 08:21:01;;;;;;;25.17;18.05;;;;;;;8.23;100.00;94404.53;5112299;28;20143;-75
2022/11/11 08:23:32;;;;;;;28.45;19.20;;;;;;;8.25;100.00;94409.50;5112697;28;20052;-75
2022/11/11 08:25:59;;;;;;;24.20;18.00;;;;;;;8.10;100.00;94387.13;5112379;28;20067;-75
2022/11/11 08:28:29;;;;;;;25.20;17.48;;;;;;;8.33;100.00;94406.88;5112575;28;20147;-75
2022/11/11 08:30:58;;;;;;;28.15;17.38;;;;;;;8.37;100.00;94405.59;5112230;28;20843;-75
2022/11/11 08:33:25;;;;;;;23.48;16.83;;;;;;;8.40;100.00;94402.72;5112600;28;20054;-75
2022/11/11 08:35:53;;;;;;;23.15;16.95;;;;;;;8.54;100.00;94408.94;5112158;28;20113;-75
2022/11/11 08:38:20;;;;;;;22.90;14.88;;;;;;;8.55;100.00;94413.09;5112476;28;20138;-76
2022/11/11 08:40:47;;;;;;;22.95;15.75;;;;;;;8.53;100.00;94422.69;5112388;28;20105;-76
2022/11/11 08:43:14;;;;;;;21.77;14.82;;;;;;;8.64;100.00;94418.97;5112161;28;20059;-75
2022/11/11 08:45:42;;;;;;;21.50;15.55;;;;;;;8.71;100.00;94418.28;5112012;28;20043;-75
2022/11/11 08:48:10;;;;;;;23.20;16.30;;;;;;;8.64;100.00;94400.22;5112038;28;20044;-75
2022/11/11 08:50:37;;;;;;;22.55;14.43;;;;;;;8.78;100.00;94432.03;5112135;28;20479;-75
2022/11/11 08:53:04;;;;;;;20.75;15.30;;;;;;;8.90;100.00;94432.44;5111246;28;20047;-76
2022/11/11 08:55:30;;;;;;;19.20;13.63;;;;;;;8.88;100.00;94434.38;5082919;28;20059;-75
2022/11/11 08:57:59;;;;;;;18.63;13.05;;;;;;;8.92;100.00;94425.38;5112009;28;20105;-75
2022/11/11 09:00:25;;;;;;;19.33;13.48;;;;;;;8.92;100.00;94428.75;5111985;28;20132;-75
2022/11/11 09:02:54;;;;;;;18.45;13.65;;;;;;;8.92;100.00;94431.31;5111771;28;20052;-76
2022/11/11 09:05:21;;;;;;;18.77;12.80;;;;;;;8.98;100.00;94432.38;5111903;28;20101;-76
2022/11/11 09:07:47;;;;;;;18.33;13.15;;;;;;;9.07;100.00;94426.25;5111825;28;20044;-75
2022/11/11 09:10:14;;;;;;;21.70;15.50;;;;;;;9.17;100.00;94426.03;5111468;28;20569;-76
2022/11/11 09:12:41;;;;;;;18.08;12.57;;;;;;;9.21;100.00;94416.22;5110835;28;20043;-76
2022/11/11 09:15:08;;;;;;;20.83;13.70;;;;;;;9.44;100.00;94426.47;5111417;28;20043;-76
2022/11/11 09:17:35;;;;;;;21.38;12.98;;;;;;;9.64;100.00;94426.03;5110540;28;20044;-76
2022/11/11 09:20:04;;;;;;;17.65;11.90;;;;;;;9.69;100.00;94425.50;5111122;28;20073;-76
2022/11/11 09:22:31;;;;;;;13.45;9.80;;;;;;;9.80;100.00;94434.53;5088212;28;20048;-76
2022/11/11 09:24:58;;;;;;;17.50;11.70;;;;;;;10.13;100.00;94424.75;5096699;28;20055;-76
2022/11/11 09:27:24;;;;;;;16.00;11.20;;;;;;;10.19;100.00;94433.53;5104447;28;20047;-76
2022/11/11 09:29:51;;;;;;;20.67;12.50;;;;;;;10.13;100.00;94435.03;5102933;28;20055;-76
2022/11/11 09:32:18;;;;;;;13.52;10.27;;;;;;;10.07;100.00;94432.34;5111142;28;20051;-76
2022/11/11 09:34:45;;;;;;;13.30;9.07;;;;;;;9.91;100.00;94430.75;5111284;28;20070;-76
2022/11/11 09:37:13;;;;;;;13.20;9.95;;;;;;;10.03;100.00;94419.88;5110856;28;20481;-76
2022/11/11 09:39:39;;;;;;;12.80;9.27;;;;;;;10.23;100.00;94426.28;5098841;28;20052;-76
2022/11/11 09:42:13;;;;;;;12.68;9.15;;;;;;;10.27;100.00;94424.94;5105533;28;20051;-76
2022/11/11 09:45:08;;;;;;;14.50;9.70;;;;;;;10.11;100.00;94393.34;5109559;28;20164;-76
2022/11/11 09:47:43;;;;;;;12.15;9.75;;;;;;;10.61;100.00;94417.69;5108080;28;20092;-76
2022/11/11 09:50:11;;;;;;;13.75;10.27;;;;;;;10.73;100.00;94418.03;5099744;28;20060;-73
2022/11/11 09:52:43;;;;;;;14.85;10.68;;;;;;;10.80;100.00;94414.53;5098810;28;20051;-73
2022/11/11 09:55:18;;;;;;;13.30;8.93;;;;;;;10.57;100.00;94414.69;5081899;28;20056;-73
2022/11/11 09:57:51;;;;;;;12.02;8.27;;;;;;;10.60;100.00;94411.75;5091097;28;20550;-72
2022/11/11 10:00:22;;;;;;;12.25;8.57;;;;;;;10.51;100.00;94418.75;5110707;28;20055;-73
2022/11/11 10:02:52;;;;;;;13.45;9.45;;;;;;;10.38;100.00;94411.63;5110695;28;20137;-73
2022/11/11 10:05:23;;;;;;;11.80;8.25;;;;;;;10.07;100.00;94384.41;5110405;28;20051;-73
2022/11/11 10:07:57;;;;;;;11.57;8.77;;;;;;;9.96;100.00;94406.16;5110425;28;20101;-73
2022/11/11 10:10:31;;;;;;;12.05;9.10;;;;;;;9.92;100.00;94406.69;5110105;28;20044;-77
2022/11/11 10:12:58;;;;;;;13.27;9.45;;;;;;;9.86;100.00;94403.84;5110533;28;20146;-76
2022/11/11 10:15:35;;;;;;;13.93;9.85;;;;;;;9.65;100.00;94378.88;5110139;28;20089;-76
2022/11/11 10:18:25;;;;;;;15.32;9.57;;;;;;;9.79;100.00;94402.94;5102561;28;20463;-76
2022/11/11 10:20:55;;;;;;;14.52;10.18;;;;;;;9.81;100.00;94402.78;5106950;28;20059;-76
2022/11/11 10:23:29;;;;;;;12.50;9.63;;;;;;;9.81;100.00;94402.78;5110087;28;20130;-76
2022/11/11 10:26:00;;;;;;;12.95;8.95;;;;;;;9.70;100.00;94401.44;5110255;28;20069;-76
2022/11/11 10:28:32;;;;;;;14.35;10.35;;;;;;;9.65;100.00;94406.28;5109816;28;20401;-76
2022/11/11 10:31:03;;;;;;;11.50;8.32;;;;;;;9.63;100.00;94416.75;5109934;28;20116;-76
2022/11/11 10:33:35;;;;;;;13.30;9.90;;;;;;;9.62;100.00;94418.50;5109915;28;20044;-76
2022/11/11 10:36:05;;;;;;;12.38;9.52;;;;;;;9.54;100.00;94403.16;5108269;28;20059;-76
2022/11/11 10:38:47;;;;;;;18.63;10.60;;;;;;;9.66;100.00;94406.13;5098004;28;20050;-76
2022/11/11 10:41:18;;;;;;;11.30;7.70;;;;;;;9.67;100.00;94414.63;5109687;28;20052;-76
2022/11/11 10:43:46;;;;;;;12.50;9.40;;;;;;;9.79;100.00;94402.16;5110231;28;20039;-75
2022/11/11 10:46:18;;;;;;;14.52;10.85;;;;;;;9.90;100.00;94404.28;5109900;28;20155;-75
2022/11/11 10:48:53;;;;;;;13.10;9.57;;;;;;;9.94;100.00;94399.59;5109185;28;20458;-75
2022/11/11 10:51:21;;;;;;;12.27;9.52;;;;;;;9.90;100.00;94399.16;5109901;28;20048;-75
2022/11/11 10:54:01;;;;;;;10.88;7.70;;;;;;;9.96;100.00;94395.88;5101523;28;20520;-76
2022/11/11 10:56:33;;;;;;;13.52;9.45;;;;;;;10.14;100.00;94394.75;5093808;28;20060;-75
2022/11/11 10:59:11;;;;;;;11.50;7.82;;;;;;;10.17;100.00;94394.38;5109759;28;20070;-75
2022/11/11 11:01:43;;;;;;;10.55;7.93;;;;;;;10.27;100.00;94394.91;5076306;28;20056;-75
2022/11/11 11:04:18;;;;;;;9.93;7.90;;;;;;;10.36;100.00;94398.19;5108223;28;20505;-75
2022/11/11 11:06:48;;;;;;;11.90;8.27;;;;;;;10.46;100.00;94394.59;5109838;28;20108;-75
2022/11/11 11:09:23;;;;;;;9.88;7.65;;;;;;;10.51;100.00;94395.63;5110181;28;20058;-75
2022/11/11 11:11:54;;;;;;;8.45;6.25;;;;;;;10.36;100.00;94381.97;5109341;28;20058;-76
2022/11/11 11:14:26;;;;;;;6.90;5.45;;;;;;;10.42;100.00;94373.56;5109797;28;20479;-75
2022/11/11 11:16:55;;;;;;;9.55;7.20;;;;;;;10.47;100.00;94378.19;5109546;28;20047;-75
2022/11/11 11:19:24;;;;;;;8.90;6.63;;;;;;;10.48;100.00;94383.16;5109600;28;20131;-75
2022/11/11 11:21:54;;;;;;;9.98;6.65;;;;;;;10.54;100.00;94384.19;5109514;28;20136;-75
2022/11/11 11:24:25;;;;;;;9.02;6.65;;;;;;;10.64;100.00;94383.94;5109743;28;20044;-76
2022/11/11 11:26:54;;;;;;;8.15;6.30;;;;;;;10.79;100.00;94384.69;5109488;28;20078;-75
2022/11/11 11:29:32;;;;;;;9.88;6.35;;;;;;;10.82;100.00;94384.31;5109975;28;20051;-75
2022/11/11 11:32:14;;;;;;;7.53;5.88;;;;;;;10.68;100.00;94344.84;5109444;28;20052;-75
2022/11/11 11:34:50;;;;;;;7.95;6.05;;;;;;;10.78;100.00;94364.31;5066210;28;20044;-75
2022/11/11 11:37:18;;;;;;;9.30;6.28;;;;;;;10.89;100.00;94357.88;5106147;28;20070;-75
2022/11/11 11:39:46;;;;;;;7.68;5.38;;;;;;;10.87;100.00;94352.94;5111213;28;20051;-75
2022/11/11 11:42:31;;;;;;;7.80;5.10;;;;;;;11.16;98.74;94363.28;5113257;28;20051;-76
2022/11/11 11:45:16;;;;;;;8.65;5.85;;;;;;;11.11;98.58;94358.69;5113330;28;20051;-76
2022/11/11 11:47:51;;;;;;;7.43;4.68;;;;;;;11.03;98.26;94358.81;5113041;28;20122;-75
2022/11/11 11:50:35;;;;;;;8.43;5.23;;;;;;;10.93;97.48;94357.34;5112927;28;20055;-75
2022/11/11 11:53:20;;;;;;;8.32;5.88;;;;;;;11.02;98.16;94355.44;5112871;28;20337;-75
2022/11/11 11:55:54;;;;;;;9.68;6.68;;;;;;;10.98;97.07;94343.94;5095765;28;20117;-75
2022/11/11 11:58:33;;;;;;;8.65;5.72;;;;;;;10.96;97.02;94358.75;5113180;28;20055;-75
2022/11/11 12:01:04;;;;;;;7.38;5.18;;;;;;;10.86;97.53;94351.34;5113213;28;20057;-75
2022/11/11 12:03:58;;;;;;;11.10;7.20;;;;;;;10.90;97.63;94357.72;5112486;28;20100;-76
2022/11/11 12:06:39;;;;;;;8.18;5.72;;;;;;;10.87;97.71;94342.63;5112651;28;20052;-75
2022/11/11 12:09:15;;;;;;;8.30;6.65;;;;;;;11.03;97.47;94354.47;5112717;28;20109;-75
2022/11/11 12:11:51;;;;;;;8.63;5.78;;;;;;;11.10;95.85;94351.94;5112558;28;20105;-75
2022/11/11 12:14:44;;;;;;;9.68;6.78;;;;;;;11.08;96.56;94352.13;5112698;28;20043;-75
2022/11/11 12:17:26;;;;;;;8.68;5.38;;;;;;;11.06;94.56;94350.75;5112409;28;20047;-75
2022/11/11 12:20:02;;;;;;;7.97;5.15;;;;;;;11.03;94.26;94359.63;5111721;28;20497;-76
2022/11/11 12:22:45;;;;;;;7.38;4.90;;;;;;;11.02;93.71;94354.66;5112035;28;20079;-76
2022/11/11 12:25:18;;;;;;;9.75;5.78;;;;;;;10.77;92.85;94324.97;5112332;27;20047;-75
2022/11/11 12:27:57;;;;;;;6.32;4.47;;;;;;;10.83;93.12;94356.81;5112444;28;20127;-75
2022/11/11 12:30:27;;;;;;;6.68;5.18;;;;;;;10.87;93.29;94332.34;5112542;28;20522;-75
2022/11/11 12:33:19;;;;;;;6.13;4.30;;;;;;;10.96;92.73;94330.47;5112095;28;20139;-75
2022/11/11 12:36:00;;;;;;;6.40;4.53;;;;;;;11.05;92.59;94324.22;5073527;28;20152;-75
2022/11/11 12:38:56;;;;;;;12.55;6.90;;;;;;;11.17;92.89;94334.81;5087697;28;20047;-75
2022/11/11 12:41:27;;;;;;;8.63;5.57;;;;;;;11.15;92.74;94318.75;5110182;28;20486;-75
2022/11/11 12:44:04;;;;;;;13.20;8.45;;;;;;;11.29;92.77;94321.47;5111817;28;20504;-75